sensor_id;sensor_type;location;lat;lon;timestamp;temperature;humidity
53520;DHT22;39397;53.204;5.778;2022-12-04T00:02:24;0.80;99.90
53520;DHT22;39397;53.204;5.778;2022-12-04T00:04:50;1.70;99.90
53520;DHT22;39397;53.204;5.778;2022-12-04T00:07:16;2.10;99.90
53520;DHT22;39397;53.204;5.778;2022-12-04T00:09:41;2.60;99.90
53520;DHT22;39397;53.204;5.778;2022-12-04T00:12:07;0.80;99.90
53520;DHT22;39397;53.204;5.778;2022-12-04T00:14:33;1.80;99.90
53520;DHT22;39397;53.204;5.778;2022-12-04T00:16:58;0.80;99.90
53520;DHT22;39397;53.204;5.778;2022-12-04T00:19:24;0.80;99.90
53520;DHT22;39397;53.204;5.778;2022-12-04T00:21:50;1.50;99.90
53520;DHT22;39397;53.204;5.778;2022-12-04T00:24:16;1.30;99.90
53520;DHT22;39397;53.204;5.778;2022-12-04T00:26:42;1.30;99.90
53520;DHT22;39397;53.204;5.778;2022-12-04T00:29:07;2.00;99.90
53520;DHT22;39397;53.204;5.778;2022-12-04T00:31:33;1.10;99.90
53520;DHT22;39397;53.204;5.778;2022-12-04T00:33:59;2.70;99.90
53520;DHT22;39397;53.204;5.778;2022-12-04T00:36:26;1.00;99.90
53520;DHT22;39397;53.204;5.778;2022-12-04T00:38:53;1.00;99.90
53520;DHT22;39397;53.204;5.778;2022-12-04T00:41:21;1.00;99.90
53520;DHT22;39397;53.204;5.778;2022-12-04T00:43:47;2.40;99.90
53520;DHT22;39397;53.204;5.778;2022-12-04T00:46:13;1.10;99.90
53520;DHT22;39397;53.204;5.778;2022-12-04T00:48:39;3.00;99.90
53520;DHT22;39397;53.204;5.778;2022-12-04T00:51:07;1.10;99.90
53520;DHT22;39397;53.204;5.778;2022-12-04T00:53:33;1.60;99.90
53520;DHT22;39397;53.204;5.778;2022-12-04T00:56:10;2.80;99.90
53520;DHT22;39397;53.204;5.778;2022-12-04T00:58:36;1.00;99.90
53520;DHT22;39397;53.204;5.778;2022-12-04T01:01:09;0.90;99.90
53520;DHT22;39397;53.204;5.778;2022-12-04T01:03:35;3.00;99.90
53520;DHT22;39397;53.204;5.778;2022-12-04T01:06:02;2.50;99.90
53520;DHT22;39397;53.204;5.778;2022-12-04T01:08:28;1.10;99.90
53520;DHT22;39397;53.204;5.778;2022-12-04T01:10:53;1.00;99.90
53520;DHT22;39397;53.204;5.778;2022-12-04T01:13:19;0.90;99.90
53520;DHT22;39397;53.204;5.778;2022-12-04T01:15:45;1.00;99.90
53520;DHT22;39397;53.204;5.778;2022-12-04T01:18:12;2.30;99.90
53520;DHT22;39397;53.204;5.778;2022-12-04T01:20:38;0.70;99.90
53520;DHT22;39397;53.204;5.778;2022-12-04T01:23:04;0.80;99.90
53520;DHT22;39397;53.204;5.778;2022-12-04T01:25:30;0.90;99.90
53520;DHT22;39397;53.204;5.778;2022-12-04T01:27:56;0.80;99.90
53520;DHT22;39397;53.204;5.778;2022-12-04T01:30:21;0.70;99.90
53520;DHT22;39397;53.204;5.778;2022-12-04T01:32:47;0.80;99.90
53520;DHT22;39397;53.204;5.778;2022-12-04T01:35:13;0.80;99.90
53520;DHT22;39397;53.204;5.778;2022-12-04T01:37:38;1.80;99.90
53520;DHT22;39397;53.204;5.778;2022-12-04T01:40:04;0.70;99.90
53520;DHT22;39397;53.204;5.778;2022-12-04T01:42:30;0.70;99.90
53520;DHT22;39397;53.204;5.778;2022-12-04T01:45:32;0.80;99.90
53520;DHT22;39397;53.204;5.778;2022-12-04T01:48:09;0.60;99.90
53520;DHT22;39397;53.204;5.778;2022-12-04T01:50:35;0.60;99.90
53520;DHT22;39397;53.204;5.778;2022-12-04T01:53:01;2.40;99.90
53520;DHT22;39397;53.204;5.778;2022-12-04T01:55:28;0.60;99.90
53520;DHT22;39397;53.204;5.778;2022-12-04T01:57:56;0.70;99.90
53520;DHT22;39397;53.204;5.778;2022-12-04T02:00:22;1.40;99.90
53520;DHT22;39397;53.204;5.778;2022-12-04T02:02:48;0.60;99.90
53520;DHT22;39397;53.204;5.778;2022-12-04T02:05:17;0.60;99.90
53520;DHT22;39397;53.204;5.778;2022-12-04T02:07:45;0.70;99.90
53520;DHT22;39397;53.204;5.778;2022-12-04T02:10:12;2.60;99.90
53520;DHT22;39397;53.204;5.778;2022-12-04T02:13:20;0.60;99.90
53520;DHT22;39397;53.204;5.778;2022-12-04T02:23:41;0.40;99.90
53520;DHT22;39397;53.204;5.778;2022-12-04T02:32:20;0.30;99.90
53520;DHT22;39397;53.204;5.778;2022-12-04T02:34:59;0.30;99.90
53520;DHT22;39397;53.204;5.778;2022-12-04T02:37:36;0.20;99.90
53520;DHT22;39397;53.204;5.778;2022-12-04T02:42:53;0.20;99.90
53520;DHT22;39397;53.204;5.778;2022-12-04T02:45:24;0.80;99.90
53520;DHT22;39397;53.204;5.778;2022-12-04T02:47:51;0.20;99.90
53520;DHT22;39397;53.204;5.778;2022-12-04T02:50:20;0.20;99.90
53520;DHT22;39397;53.204;5.778;2022-12-04T02:53:00;0.10;99.90
53520;DHT22;39397;53.204;5.778;2022-12-04T02:55:36;1.00;99.90
53520;DHT22;39397;53.204;5.778;2022-12-04T02:58:19;1.70;99.90
53520;DHT22;39397;53.204;5.778;2022-12-04T03:00:46;0.30;99.90
53520;DHT22;39397;53.204;5.778;2022-12-04T03:03:21;1.80;99.90
53520;DHT22;39397;53.204;5.778;2022-12-04T03:06:00;1.80;99.90
53520;DHT22;39397;53.204;5.778;2022-12-04T03:08:51;0.20;99.90
53520;DHT22;39397;53.204;5.778;2022-12-04T03:11:16;0.30;99.90
53520;DHT22;39397;53.204;5.778;2022-12-04T03:13:58;0.20;99.90
53520;DHT22;39397;53.204;5.778;2022-12-04T03:16:31;1.50;99.90
53520;DHT22;39397;53.204;5.778;2022-12-04T03:19:15;0.00;99.90
53520;DHT22;39397;53.204;5.778;2022-12-04T03:21:53;0.10;99.90
53520;DHT22;39397;53.204;5.778;2022-12-04T03:24:26;0.00;99.90
53520;DHT22;39397;53.204;5.778;2022-12-04T03:27:02;0.00;99.90
53520;DHT22;39397;53.204;5.778;2022-12-04T03:29:34;0.00;99.90
53520;DHT22;39397;53.204;5.778;2022-12-04T03:32:05;1.10;99.90
53520;DHT22;39397;53.204;5.778;2022-12-04T03:34:54;0.00;99.90
53520;DHT22;39397;53.204;5.778;2022-12-04T03:42:36;0.10;99.90
53520;DHT22;39397;53.204;5.778;2022-12-04T03:45:08;1.80;99.90
53520;DHT22;39397;53.204;5.778;2022-12-04T03:47:41;0.20;99.90
53520;DHT22;39397;53.204;5.778;2022-12-04T03:50:16;1.90;99.90
53520;DHT22;39397;53.204;5.778;2022-12-04T03:55:28;0.50;99.90
53520;DHT22;39397;53.204;5.778;2022-12-04T03:58:01;0.50;99.90
53520;DHT22;39397;53.204;5.778;2022-12-04T04:00:30;1.30;99.90
53520;DHT22;39397;53.204;5.778;2022-12-04T04:03:06;0.60;99.90
53520;DHT22;39397;53.204;5.778;2022-12-04T04:05:35;0.60;99.90
53520;DHT22;39397;53.204;5.778;2022-12-04T04:08:05;0.70;99.90
53520;DHT22;39397;53.204;5.778;2022-12-04T04:10:52;0.80;99.90
53520;DHT22;39397;53.204;5.778;2022-12-04T04:13:23;2.80;99.90
53520;DHT22;39397;53.204;5.778;2022-12-04T04:16:10;0.80;99.90
53520;DHT22;39397;53.204;5.778;2022-12-04T04:18:57;2.30;99.90
53520;DHT22;39397;53.204;5.778;2022-12-04T04:21:44;1.40;99.90
53520;DHT22;39397;53.204;5.778;2022-12-04T04:25:05;1.20;99.90
53520;DHT22;39397;53.204;5.778;2022-12-04T04:27:32;0.90;99.90
53520;DHT22;39397;53.204;5.778;2022-12-04T04:29:58;2.50;99.90
53520;DHT22;39397;53.204;5.778;2022-12-04T04:32:57;1.20;99.90
53520;DHT22;39397;53.204;5.778;2022-12-04T04:35:52;0.80;99.90
53520;DHT22;39397;53.204;5.778;2022-12-04T04:38:27;0.80;99.90
53520;DHT22;39397;53.204;5.778;2022-12-04T04:41:20;1.80;99.90
53520;DHT22;39397;53.204;5.778;2022-12-04T04:44:04;0.80;99.90
53520;DHT22;39397;53.204;5.778;2022-12-04T04:46:35;0.80;99.90
53520;DHT22;39397;53.204;5.778;2022-12-04T04:49:04;0.80;99.90
53520;DHT22;39397;53.204;5.778;2022-12-04T04:51:33;2.50;99.90
53520;DHT22;39397;53.204;5.778;2022-12-04T04:54:03;2.90;99.90
53520;DHT22;39397;53.204;5.778;2022-12-04T04:56:30;2.20;99.90
53520;DHT22;39397;53.204;5.778;2022-12-04T04:58:55;1.10;99.90
53520;DHT22;39397;53.204;5.778;2022-12-04T05:01:24;1.80;99.90
53520;DHT22;39397;53.204;5.778;2022-12-04T05:03:51;2.10;99.90
53520;DHT22;39397;53.204;5.778;2022-12-04T05:06:16;0.90;99.90
53520;DHT22;39397;53.204;5.778;2022-12-04T05:08:42;2.10;99.90
53520;DHT22;39397;53.204;5.778;2022-12-04T05:11:13;2.40;99.90
53520;DHT22;39397;53.204;5.778;2022-12-04T05:13:39;1.70;99.90
53520;DHT22;39397;53.204;5.778;2022-12-04T05:16:07;2.30;99.90
53520;DHT22;39397;53.204;5.778;2022-12-04T05:18:34;0.90;99.90
53520;DHT22;39397;53.204;5.778;2022-12-04T05:21:07;1.10;99.90
53520;DHT22;39397;53.204;5.778;2022-12-04T05:23:33;0.90;99.90
53520;DHT22;39397;53.204;5.778;2022-12-04T05:26:01;0.90;99.90
53520;DHT22;39397;53.204;5.778;2022-12-04T05:28:27;1.00;99.90
53520;DHT22;39397;53.204;5.778;2022-12-04T05:30:57;1.30;99.90
53520;DHT22;39397;53.204;5.778;2022-12-04T05:33:23;0.80;99.90
53520;DHT22;39397;53.204;5.778;2022-12-04T05:36:00;2.50;99.90
53520;DHT22;39397;53.204;5.778;2022-12-04T05:38:26;2.10;99.90
53520;DHT22;39397;53.204;5.778;2022-12-04T05:40:52;2.00;99.90
53520;DHT22;39397;53.204;5.778;2022-12-04T05:43:18;0.90;99.90
53520;DHT22;39397;53.204;5.778;2022-12-04T05:45:44;2.30;99.90
53520;DHT22;39397;53.204;5.778;2022-12-04T05:48:10;0.90;99.90
53520;DHT22;39397;53.204;5.778;2022-12-04T05:50:37;1.00;99.90
53520;DHT22;39397;53.204;5.778;2022-12-04T05:53:03;1.70;99.90
53520;DHT22;39397;53.204;5.778;2022-12-04T05:55:28;2.80;99.90
53520;DHT22;39397;53.204;5.778;2022-12-04T05:57:54;0.80;99.90
53520;DHT22;39397;53.204;5.778;2022-12-04T06:00:20;2.30;99.90
53520;DHT22;39397;53.204;5.778;2022-12-04T06:02:45;0.80;99.90
53520;DHT22;39397;53.204;5.778;2022-12-04T06:05:11;0.80;99.90
53520;DHT22;39397;53.204;5.778;2022-12-04T06:07:37;0.80;99.90
53520;DHT22;39397;53.204;5.778;2022-12-04T06:10:03;0.80;99.90
53520;DHT22;39397;53.204;5.778;2022-12-04T06:12:29;0.80;99.90
53520;DHT22;39397;53.204;5.778;2022-12-04T06:14:55;0.80;99.90
53520;DHT22;39397;53.204;5.778;2022-12-04T06:17:21;0.70;99.90
53520;DHT22;39397;53.204;5.778;2022-12-04T06:19:47;1.90;99.90
53520;DHT22;39397;53.204;5.778;2022-12-04T06:22:12;0.70;99.90
53520;DHT22;39397;53.204;5.778;2022-12-04T06:24:38;2.60;99.90
53520;DHT22;39397;53.204;5.778;2022-12-04T06:27:04;0.80;99.90
53520;DHT22;39397;53.204;5.778;2022-12-04T06:29:30;1.60;99.90
53520;DHT22;39397;53.204;5.778;2022-12-04T06:31:55;2.20;99.90
53520;DHT22;39397;53.204;5.778;2022-12-04T06:34:21;0.90;99.90
53520;DHT22;39397;53.204;5.778;2022-12-04T06:36:47;1.90;99.90
53520;DHT22;39397;53.204;5.778;2022-12-04T06:39:12;2.30;99.90
53520;DHT22;39397;53.204;5.778;2022-12-04T06:41:38;2.00;99.90
53520;DHT22;39397;53.204;5.778;2022-12-04T06:44:04;0.80;99.90
53520;DHT22;39397;53.204;5.778;2022-12-04T06:46:31;0.90;99.90
53520;DHT22;39397;53.204;5.778;2022-12-04T06:48:59;2.80;99.90
53520;DHT22;39397;53.204;5.778;2022-12-04T06:51:34;0.80;99.90
53520;DHT22;39397;53.204;5.778;2022-12-04T06:54:00;0.70;99.90
53520;DHT22;39397;53.204;5.778;2022-12-04T06:56:29;2.70;99.90
53520;DHT22;39397;53.204;5.778;2022-12-04T06:58:56;2.30;99.90
53520;DHT22;39397;53.204;5.778;2022-12-04T07:01:25;1.20;99.90
53520;DHT22;39397;53.204;5.778;2022-12-04T07:03:51;2.70;99.90
53520;DHT22;39397;53.204;5.778;2022-12-04T07:06:21;1.40;99.90
53520;DHT22;39397;53.204;5.778;2022-12-04T07:08:50;0.90;99.90
53520;DHT22;39397;53.204;5.778;2022-12-04T07:11:17;0.90;99.90
53520;DHT22;39397;53.204;5.778;2022-12-04T07:13:43;1.80;99.90
53520;DHT22;39397;53.204;5.778;2022-12-04T07:16:12;2.30;99.90
53520;DHT22;39397;53.204;5.778;2022-12-04T07:18:38;1.40;99.90
53520;DHT22;39397;53.204;5.778;2022-12-04T07:21:08;2.90;99.90
53520;DHT22;39397;53.204;5.778;2022-12-04T07:23:34;2.80;99.90
53520;DHT22;39397;53.204;5.778;2022-12-04T07:26:08;2.10;99.90
53520;DHT22;39397;53.204;5.778;2022-12-04T07:28:34;0.80;99.90
53520;DHT22;39397;53.204;5.778;2022-12-04T07:31:08;1.10;99.90
53520;DHT22;39397;53.204;5.778;2022-12-04T07:33:34;0.80;99.90
53520;DHT22;39397;53.204;5.778;2022-12-04T07:36:02;1.50;99.90
53520;DHT22;39397;53.204;5.778;2022-12-04T07:38:29;1.10;99.90
53520;DHT22;39397;53.204;5.778;2022-12-04T07:40:56;2.60;99.90
53520;DHT22;39397;53.204;5.778;2022-12-04T07:43:23;0.90;99.90
53520;DHT22;39397;53.204;5.778;2022-12-04T07:45:48;0.90;99.90
53520;DHT22;39397;53.204;5.778;2022-12-04T07:48:14;2.40;99.90
53520;DHT22;39397;53.204;5.778;2022-12-04T07:50:40;2.90;99.90
53520;DHT22;39397;53.204;5.778;2022-12-04T07:53:05;0.90;99.90
53520;DHT22;39397;53.204;5.778;2022-12-04T07:55:31;2.60;99.90
53520;DHT22;39397;53.204;5.778;2022-12-04T07:57:57;1.00;99.90
53520;DHT22;39397;53.204;5.778;2022-12-04T08:00:22;1.10;99.90
53520;DHT22;39397;53.204;5.778;2022-12-04T08:02:49;2.30;99.90
53520;DHT22;39397;53.204;5.778;2022-12-04T08:05:15;1.00;99.90
53520;DHT22;39397;53.204;5.778;2022-12-04T08:07:41;1.00;99.90
53520;DHT22;39397;53.204;5.778;2022-12-04T08:10:07;2.80;99.90
53520;DHT22;39397;53.204;5.778;2022-12-04T08:12:33;1.00;99.90
53520;DHT22;39397;53.204;5.778;2022-12-04T08:14:58;1.10;99.90
53520;DHT22;39397;53.204;5.778;2022-12-04T08:17:24;1.00;99.90
53520;DHT22;39397;53.204;5.778;2022-12-04T08:19:50;1.40;99.90
53520;DHT22;39397;53.204;5.778;2022-12-04T08:22:15;1.10;99.90
53520;DHT22;39397;53.204;5.778;2022-12-04T08:24:41;1.00;99.90
53520;DHT22;39397;53.204;5.778;2022-12-04T08:27:07;2.50;99.90
53520;DHT22;39397;53.204;5.778;2022-12-04T08:29:33;1.00;99.90
53520;DHT22;39397;53.204;5.778;2022-12-04T08:31:59;2.00;99.90
53520;DHT22;39397;53.204;5.778;2022-12-04T08:34:24;1.10;99.90
53520;DHT22;39397;53.204;5.778;2022-12-04T08:36:50;1.90;99.90
53520;DHT22;39397;53.204;5.778;2022-12-04T08:39:16;2.80;99.90
53520;DHT22;39397;53.204;5.778;2022-12-04T08:41:41;2.80;99.90
53520;DHT22;39397;53.204;5.778;2022-12-04T08:44:08;1.70;99.90
53520;DHT22;39397;53.204;5.778;2022-12-04T08:46:34;1.40;99.90
53520;DHT22;39397;53.204;5.778;2022-12-04T08:49:00;1.30;99.90
53520;DHT22;39397;53.204;5.778;2022-12-04T08:51:28;2.80;99.90
53520;DHT22;39397;53.204;5.778;2022-12-04T08:53:55;1.20;99.90
53520;DHT22;39397;53.204;5.778;2022-12-04T08:56:23;2.60;99.90
53520;DHT22;39397;53.204;5.778;2022-12-04T08:58:49;1.30;99.90
53520;DHT22;39397;53.204;5.778;2022-12-04T09:01:14;1.60;99.90
53520;DHT22;39397;53.204;5.778;2022-12-04T09:03:40;1.30;99.90
53520;DHT22;39397;53.204;5.778;2022-12-04T09:06:09;0.30;99.90
53520;DHT22;39397;53.204;5.778;2022-12-04T09:08:35;1.40;99.90
53520;DHT22;39397;53.204;5.778;2022-12-04T09:11:10;3.30;99.90
53520;DHT22;39397;53.204;5.778;2022-12-04T09:13:37;1.40;99.90
53520;DHT22;39397;53.204;5.778;2022-12-04T09:16:04;2.00;99.90
53520;DHT22;39397;53.204;5.778;2022-12-04T09:18:31;1.40;99.90
53520;DHT22;39397;53.204;5.778;2022-12-04T09:21:00;1.40;99.90
53520;DHT22;39397;53.204;5.778;2022-12-04T09:23:26;1.50;99.90
53520;DHT22;39397;53.204;5.778;2022-12-04T09:25:52;1.40;99.90
53520;DHT22;39397;53.204;5.778;2022-12-04T09:28:18;2.60;99.90
53520;DHT22;39397;53.204;5.778;2022-12-04T09:30:45;3.60;99.90
53520;DHT22;39397;53.204;5.778;2022-12-04T09:33:10;1.50;99.90
53520;DHT22;39397;53.204;5.778;2022-12-04T09:35:39;3.30;99.90
53520;DHT22;39397;53.204;5.778;2022-12-04T09:38:05;1.60;99.90
53520;DHT22;39397;53.204;5.778;2022-12-04T09:40:50;3.00;99.90
53520;DHT22;39397;53.204;5.778;2022-12-04T09:43:34;1.70;99.90
53520;DHT22;39397;53.204;5.778;2022-12-04T09:46:09;1.70;99.90
53520;DHT22;39397;53.204;5.778;2022-12-04T09:48:39;3.40;99.90
53520;DHT22;39397;53.204;5.778;2022-12-04T09:51:07;1.80;99.90
53520;DHT22;39397;53.204;5.778;2022-12-04T09:54:22;2.50;99.90
53520;DHT22;39397;53.204;5.778;2022-12-04T09:56:58;2.70;99.90
53520;DHT22;39397;53.204;5.778;2022-12-04T09:59:26;1.60;99.90
53520;DHT22;39397;53.204;5.778;2022-12-04T10:02:06;1.60;99.90
53520;DHT22;39397;53.204;5.778;2022-12-04T10:04:37;1.80;99.90
53520;DHT22;39397;53.204;5.778;2022-12-04T10:07:19;1.80;99.90
53520;DHT22;39397;53.204;5.778;2022-12-04T10:09:56;1.70;99.90
53520;DHT22;39397;53.204;5.778;2022-12-04T10:12:45;2.10;99.90
53520;DHT22;39397;53.204;5.778;2022-12-04T10:26:43;2.50;99.90
53520;DHT22;39397;53.204;5.778;2022-12-04T10:29:30;2.10;99.90
53520;DHT22;39397;53.204;5.778;2022-12-04T10:34:48;2.10;99.90
53520;DHT22;39397;53.204;5.778;2022-12-04T10:37:14;2.50;99.90
53520;DHT22;39397;53.204;5.778;2022-12-04T10:39:56;3.60;99.90
53520;DHT22;39397;53.204;5.778;2022-12-04T10:42:34;2.20;99.90
53520;DHT22;39397;53.204;5.778;2022-12-04T10:45:04;2.20;99.90
53520;DHT22;39397;53.204;5.778;2022-12-04T10:47:29;2.30;99.90
53520;DHT22;39397;53.204;5.778;2022-12-04T10:50:02;2.30;99.90
53520;DHT22;39397;53.204;5.778;2022-12-04T10:52:29;3.60;99.90
53520;DHT22;39397;53.204;5.778;2022-12-04T10:54:56;2.50;99.90
53520;DHT22;39397;53.204;5.778;2022-12-04T10:57:37;2.90;99.90
53520;DHT22;39397;53.204;5.778;2022-12-04T11:00:26;4.10;99.90
53520;DHT22;39397;53.204;5.778;2022-12-04T11:02:53;2.60;99.90
53520;DHT22;39397;53.204;5.778;2022-12-04T11:05:36;4.30;99.90
53520;DHT22;39397;53.204;5.778;2022-12-04T11:08:04;2.60;99.90
53520;DHT22;39397;53.204;5.778;2022-12-04T11:10:37;2.60;99.90
53520;DHT22;39397;53.204;5.778;2022-12-04T11:13:16;3.70;99.90
53520;DHT22;39397;53.204;5.778;2022-12-04T11:15:54;4.00;99.90
53520;DHT22;39397;53.204;5.778;2022-12-04T11:18:28;3.90;99.90
53520;DHT22;39397;53.204;5.778;2022-12-04T11:21:03;2.80;99.90
53520;DHT22;39397;53.204;5.778;2022-12-04T11:23:40;2.90;99.90
53520;DHT22;39397;53.204;5.778;2022-12-04T11:26:06;3.30;99.90
53520;DHT22;39397;53.204;5.778;2022-12-04T11:28:33;4.00;99.90
53520;DHT22;39397;53.204;5.778;2022-12-04T11:31:02;3.00;99.90
53520;DHT22;39397;53.204;5.778;2022-12-04T11:33:39;3.00;99.90
53520;DHT22;39397;53.204;5.778;2022-12-04T11:36:32;4.10;99.90
53520;DHT22;39397;53.204;5.778;2022-12-04T11:41:36;3.20;99.90
53520;DHT22;39397;53.204;5.778;2022-12-04T11:44:05;4.50;99.90
53520;DHT22;39397;53.204;5.778;2022-12-04T11:46:32;3.20;99.90
53520;DHT22;39397;53.204;5.778;2022-12-04T11:48:59;3.50;99.90
53520;DHT22;39397;53.204;5.778;2022-12-04T12:03:09;3.30;99.90
53520;DHT22;39397;53.204;5.778;2022-12-04T12:05:48;3.10;99.90
53520;DHT22;39397;53.204;5.778;2022-12-04T12:13:34;3.30;99.90
53520;DHT22;39397;53.204;5.778;2022-12-04T12:16:21;3.30;99.90
53520;DHT22;39397;53.204;5.778;2022-12-04T12:24:30;3.30;99.90
53520;DHT22;39397;53.204;5.778;2022-12-04T12:27:05;3.80;99.90
53520;DHT22;39397;53.204;5.778;2022-12-04T12:30:02;4.20;99.90
53520;DHT22;39397;53.204;5.778;2022-12-04T12:35:38;3.10;99.90
53520;DHT22;39397;53.204;5.778;2022-12-04T12:38:13;3.10;99.90
53520;DHT22;39397;53.204;5.778;2022-12-04T12:40:50;3.10;99.90
53520;DHT22;39397;53.204;5.778;2022-12-04T12:46:10;3.20;99.90
53520;DHT22;39397;53.204;5.778;2022-12-04T12:49:15;3.00;99.90
53520;DHT22;39397;53.204;5.778;2022-12-04T12:51:55;3.10;99.90
53520;DHT22;39397;53.204;5.778;2022-12-04T12:59:54;3.10;99.90
53520;DHT22;39397;53.204;5.778;2022-12-04T13:05:11;3.10;99.90
53520;DHT22;39397;53.204;5.778;2022-12-04T13:11:19;3.10;99.90
53520;DHT22;39397;53.204;5.778;2022-12-04T13:13:27;2.90;99.90
53520;DHT22;39397;53.204;5.778;2022-12-04T13:16:27;3.60;99.90
53520;DHT22;39397;53.204;5.778;2022-12-04T13:26:50;3.10;99.90
53520;DHT22;39397;53.204;5.778;2022-12-04T13:35:42;3.10;99.90
53520;DHT22;39397;53.204;5.778;2022-12-04T13:40:57;3.10;99.90
53520;DHT22;39397;53.204;5.778;2022-12-04T13:46:05;3.10;99.90
53520;DHT22;39397;53.204;5.778;2022-12-04T13:48:40;3.10;99.90
53520;DHT22;39397;53.204;5.778;2022-12-04T13:51:42;3.10;99.90
53520;DHT22;39397;53.204;5.778;2022-12-04T13:56:36;3.80;99.90
53520;DHT22;39397;53.204;5.778;2022-12-04T13:59:04;3.80;99.90
53520;DHT22;39397;53.204;5.778;2022-12-04T14:01:38;3.30;99.90
53520;DHT22;39397;53.204;5.778;2022-12-04T14:04:06;3.20;99.90
53520;DHT22;39397;53.204;5.778;2022-12-04T14:06:41;4.60;99.90
53520;DHT22;39397;53.204;5.778;2022-12-04T14:09:19;3.60;99.90
53520;DHT22;39397;53.204;5.778;2022-12-04T14:11:48;3.20;99.90
53520;DHT22;39397;53.204;5.778;2022-12-04T14:14:27;3.20;99.90
53520;DHT22;39397;53.204;5.778;2022-12-04T14:16:56;3.10;99.90
53520;DHT22;39397;53.204;5.778;2022-12-04T14:19:34;3.20;99.90
53520;DHT22;39397;53.204;5.778;2022-12-04T14:22:01;3.10;99.90
53520;DHT22;39397;53.204;5.778;2022-12-04T14:24:35;4.40;99.90
53520;DHT22;39397;53.204;5.778;2022-12-04T14:29:52;3.10;99.90
53520;DHT22;39397;53.204;5.778;2022-12-04T14:32:25;4.10;99.90
53520;DHT22;39397;53.204;5.778;2022-12-04T14:34:52;4.40;99.90
53520;DHT22;39397;53.204;5.778;2022-12-04T14:37:27;3.30;99.90
53520;DHT22;39397;53.204;5.778;2022-12-04T14:39:54;3.20;99.90
53520;DHT22;39397;53.204;5.778;2022-12-04T14:42:22;3.30;99.90
53520;DHT22;39397;53.204;5.778;2022-12-04T14:44:58;4.40;99.90
53520;DHT22;39397;53.204;5.778;2022-12-04T14:52:47;3.30;99.90
53520;DHT22;39397;53.204;5.778;2022-12-04T14:55:26;4.30;99.90
53520;DHT22;39397;53.204;5.778;2022-12-04T14:58:11;3.20;99.90
53520;DHT22;39397;53.204;5.778;2022-12-04T15:01:38;3.30;99.90
53520;DHT22;39397;53.204;5.778;2022-12-04T15:03:47;3.40;99.90
53520;DHT22;39397;53.204;5.778;2022-12-04T15:06:33;3.40;99.90
53520;DHT22;39397;53.204;5.778;2022-12-04T15:09:02;4.10;99.90
53520;DHT22;39397;53.204;5.778;2022-12-04T15:11:51;4.90;99.90
53520;DHT22;39397;53.204;5.778;2022-12-04T15:17:10;3.40;99.90
53520;DHT22;39397;53.204;5.778;2022-12-04T15:19:36;4.90;99.90
53520;DHT22;39397;53.204;5.778;2022-12-04T15:22:03;3.50;99.90
53520;DHT22;39397;53.204;5.778;2022-12-04T15:24:29;3.50;99.90
53520;DHT22;39397;53.204;5.778;2022-12-04T15:26:55;4.70;99.90
53520;DHT22;39397;53.204;5.778;2022-12-04T15:29:25;3.60;99.90
53520;DHT22;39397;53.204;5.778;2022-12-04T15:31:59;4.00;99.90
53520;DHT22;39397;53.204;5.778;2022-12-04T15:35:00;4.70;99.90
53520;DHT22;39397;53.204;5.778;2022-12-04T15:37:31;3.80;99.90
53520;DHT22;39397;53.204;5.778;2022-12-04T15:39:59;3.50;99.90
53520;DHT22;39397;53.204;5.778;2022-12-04T15:42:29;3.40;99.90
53520;DHT22;39397;53.204;5.778;2022-12-04T15:45:30;3.40;99.90
53520;DHT22;39397;53.204;5.778;2022-12-04T15:47:52;3.40;99.90
53520;DHT22;39397;53.204;5.778;2022-12-04T15:55:24;3.40;99.90
53520;DHT22;39397;53.204;5.778;2022-12-04T15:57:55;5.30;99.90
53520;DHT22;39397;53.204;5.778;2022-12-04T16:00:36;3.40;99.90
53520;DHT22;39397;53.204;5.778;2022-12-04T16:03:19;3.30;99.90
53520;DHT22;39397;53.204;5.778;2022-12-04T16:05:46;3.30;99.90
53520;DHT22;39397;53.204;5.778;2022-12-04T16:08:24;3.30;99.90
53520;DHT22;39397;53.204;5.778;2022-12-04T16:11:01;4.40;99.90
53520;DHT22;39397;53.204;5.778;2022-12-04T16:13:30;4.60;99.90
53520;DHT22;39397;53.204;5.778;2022-12-04T16:15:56;3.90;99.90
53520;DHT22;39397;53.204;5.778;2022-12-04T16:18:25;4.80;99.90
53520;DHT22;39397;53.204;5.778;2022-12-04T16:20:52;4.10;99.90
53520;DHT22;39397;53.204;5.778;2022-12-04T16:23:18;3.20;99.90
53520;DHT22;39397;53.204;5.778;2022-12-04T16:25:43;4.20;99.90
53520;DHT22;39397;53.204;5.778;2022-12-04T16:28:09;5.10;99.90
53520;DHT22;39397;53.204;5.778;2022-12-04T16:30:35;5.00;99.90
53520;DHT22;39397;53.204;5.778;2022-12-04T16:33:01;3.30;99.90
53520;DHT22;39397;53.204;5.778;2022-12-04T16:35:26;3.10;99.90
53520;DHT22;39397;53.204;5.778;2022-12-04T16:37:54;3.20;99.90
53520;DHT22;39397;53.204;5.778;2022-12-04T16:40:20;3.20;99.90
53520;DHT22;39397;53.204;5.778;2022-12-04T16:42:46;4.10;99.90
53520;DHT22;39397;53.204;5.778;2022-12-04T16:45:31;3.70;99.90
53520;DHT22;39397;53.204;5.778;2022-12-04T16:47:57;4.20;99.90
53520;DHT22;39397;53.204;5.778;2022-12-04T16:50:24;4.80;99.90
53520;DHT22;39397;53.204;5.778;2022-12-04T16:52:50;3.40;99.90
53520;DHT22;39397;53.204;5.778;2022-12-04T16:55:53;4.00;99.90
53520;DHT22;39397;53.204;5.778;2022-12-04T16:58:12;3.30;99.90
53520;DHT22;39397;53.204;5.778;2022-12-04T17:00:38;3.80;99.90
53520;DHT22;39397;53.204;5.778;2022-12-04T17:03:04;5.00;99.90
53520;DHT22;39397;53.204;5.778;2022-12-04T17:05:32;3.40;99.90
53520;DHT22;39397;53.204;5.778;2022-12-04T17:08:00;4.20;99.90
53520;DHT22;39397;53.204;5.778;2022-12-04T17:10:26;3.30;99.90
53520;DHT22;39397;53.204;5.778;2022-12-04T17:12:54;4.30;99.90
53520;DHT22;39397;53.204;5.778;2022-12-04T17:15:20;3.60;99.90
53520;DHT22;39397;53.204;5.778;2022-12-04T17:17:46;3.50;99.90
53520;DHT22;39397;53.204;5.778;2022-12-04T17:20:14;3.30;99.90
53520;DHT22;39397;53.204;5.778;2022-12-04T17:22:40;3.30;99.90
53520;DHT22;39397;53.204;5.778;2022-12-04T17:25:07;4.20;99.90
53520;DHT22;39397;53.204;5.778;2022-12-04T17:27:33;3.30;99.90
53520;DHT22;39397;53.204;5.778;2022-12-04T17:29:59;3.80;99.90
53520;DHT22;39397;53.204;5.778;2022-12-04T17:32:26;3.70;99.90
53520;DHT22;39397;53.204;5.778;2022-12-04T17:34:54;4.30;99.90
53520;DHT22;39397;53.204;5.778;2022-12-04T17:37:20;4.40;99.90
53520;DHT22;39397;53.204;5.778;2022-12-04T17:39:45;5.40;99.90
53520;DHT22;39397;53.204;5.778;2022-12-04T17:42:11;5.50;99.90
53520;DHT22;39397;53.204;5.778;2022-12-04T17:44:37;3.60;99.90
53520;DHT22;39397;53.204;5.778;2022-12-04T17:47:03;3.90;99.90
53520;DHT22;39397;53.204;5.778;2022-12-04T17:49:28;3.50;99.90
53520;DHT22;39397;53.204;5.778;2022-12-04T17:51:55;3.60;99.90
53520;DHT22;39397;53.204;5.778;2022-12-04T17:54:21;3.70;99.90
53520;DHT22;39397;53.204;5.778;2022-12-04T17:56:47;4.70;99.90
53520;DHT22;39397;53.204;5.778;2022-12-04T17:59:14;3.90;99.90
53520;DHT22;39397;53.204;5.778;2022-12-04T18:01:40;4.60;99.90
53520;DHT22;39397;53.204;5.778;2022-12-04T18:04:06;4.50;99.90
53520;DHT22;39397;53.204;5.778;2022-12-04T18:06:43;3.60;99.90
53520;DHT22;39397;53.204;5.778;2022-12-04T18:09:11;4.60;99.90